Strona główna
METAR-TAF:

METAR-TAF

Lotnisko :

Cabo Frio, Rio de Janeiro, Brazylia

Szerokość geograficzna: 22-55-15S, Długość geograficzna: 042-04-17W, wysokość: 7 m

Aktualna obserwacja pogody

Raport powstał 1 godzina i 4 minut temu, godzina 18:00 UTC
Wiatr 14 kt od północny wschód
Temperatura 29°C
Wilgotność 62%
Ciśnienie 1012 hPa
Widzialność 10 km lub więcej
Brak chmur poniżej 1500 m i brak chmur cumulonimbus

METAR: SBCB 251800Z 05014KT CAVOK 29/21 Q1012

czas: 16:04 (19:04 UTC)

Prognoza

Raport powstał 4 godziny i 4 minut temu, godzina 15:00 UTC
Prognoza ważna od 25 godzina 18 UTC do 26 godzina 06 UTC
Wiatr 15 kt od wschodnio-północny wschód
Widzialność 10 km lub więcej
Mało chmury na wysokości 2000 ft

TAF: SBCB 251500Z 2518/2606 06015KT 9999 FEW020 TX27/2519Z TN24/2606Z RMK PGY

Obserwacja i prognoza pogody dla ponad 4000 lotnisk (raport METAR i TAF).

Dostępne stacje oznaczono żółtymi i czerwonymi punktami na mapie.

Najedź kursorem aby zobaczyć nazwę stacji.

Kliknij aby zobaczyć obserwacje i prognozy pogody.

Aby zmienić mapę: kliknij na zielony przycisk z czarnym krzyżykiem, aby powiększyć; na zielony przycisk z myślnikiem, aby pomniejszyć; na zielone strzałki, aby przejść do map sąsiednich.


METAR-TAF: